sensor_id;sensor_type;location;lat;lon;timestamp;P1;durP1;ratioP1;P2;durP2;ratioP2
19049;SDS011;9657;45.940;12.840;2023-02-01T00:02:26;49.70;;;33.60;;
19049;SDS011;9657;45.940;12.840;2023-02-01T00:04:53;46.93;;;33.30;;
19049;SDS011;9657;45.940;12.840;2023-02-01T00:07:19;46.07;;;33.10;;
19049;SDS011;9657;45.940;12.840;2023-02-01T00:09:47;46.53;;;32.60;;
19049;SDS011;9657;45.940;12.840;2023-02-01T00:12:15;46.50;;;29.07;;
19049;SDS011;9657;45.940;12.840;2023-02-01T00:14:42;44.83;;;27.33;;
19049;SDS011;9657;45.940;12.840;2023-02-01T00:17:09;40.80;;;28.60;;
19049;SDS011;9657;45.940;12.840;2023-02-01T00:19:36;43.60;;;27.40;;
19049;SDS011;9657;45.940;12.840;2023-02-01T00:22:03;43.70;;;27.13;;
19049;SDS011;9657;45.940;12.840;2023-02-01T00:24:30;41.90;;;27.70;;
19049;SDS011;9657;45.940;12.840;2023-02-01T00:26:57;40.67;;;27.03;;
19049;SDS011;9657;45.940;12.840;2023-02-01T00:29:26;37.30;;;24.60;;
19049;SDS011;9657;45.940;12.840;2023-02-01T00:31:53;42.70;;;27.80;;
19049;SDS011;9657;45.940;12.840;2023-02-01T00:34:20;40.23;;;27.47;;
19049;SDS011;9657;45.940;12.840;2023-02-01T00:36:47;36.60;;;25.07;;
19049;SDS011;9657;45.940;12.840;2023-02-01T00:39:15;42.13;;;27.67;;
19049;SDS011;9657;45.940;12.840;2023-02-01T00:41:42;36.37;;;24.73;;
19049;SDS011;9657;45.940;12.840;2023-02-01T00:44:09;47.33;;;26.47;;
19049;SDS011;9657;45.940;12.840;2023-02-01T00:46:37;42.20;;;26.13;;
19049;SDS011;9657;45.940;12.840;2023-02-01T00:49:04;38.50;;;24.83;;
19049;SDS011;9657;45.940;12.840;2023-02-01T00:51:34;38.23;;;25.33;;
19049;SDS011;9657;45.940;12.840;2023-02-01T00:54:01;37.63;;;24.63;;
19049;SDS011;9657;45.940;12.840;2023-02-01T00:56:29;37.23;;;24.30;;
19049;SDS011;9657;45.940;12.840;2023-02-01T00:58:56;37.70;;;23.40;;
19049;SDS011;9657;45.940;12.840;2023-02-01T01:01:24;38.50;;;23.73;;
19049;SDS011;9657;45.940;12.840;2023-02-01T01:03:54;33.77;;;23.57;;
19049;SDS011;9657;45.940;12.840;2023-02-01T01:06:23;36.70;;;23.37;;
19049;SDS011;9657;45.940;12.840;2023-02-01T01:08:52;34.67;;;21.57;;
19049;SDS011;9657;45.940;12.840;2023-02-01T01:11:21;35.20;;;21.87;;
19049;SDS011;9657;45.940;12.840;2023-02-01T01:13:49;37.13;;;23.57;;
19049;SDS011;9657;45.940;12.840;2023-02-01T01:16:17;36.97;;;23.03;;
19049;SDS011;9657;45.940;12.840;2023-02-01T01:18:46;32.47;;;21.97;;
19049;SDS011;9657;45.940;12.840;2023-02-01T01:21:15;32.70;;;23.60;;
19049;SDS011;9657;45.940;12.840;2023-02-01T01:23:43;33.73;;;23.77;;
19049;SDS011;9657;45.940;12.840;2023-02-01T01:26:13;34.33;;;21.50;;
19049;SDS011;9657;45.940;12.840;2023-02-01T01:28:41;33.23;;;21.40;;
19049;SDS011;9657;45.940;12.840;2023-02-01T01:31:08;33.43;;;21.90;;
19049;SDS011;9657;45.940;12.840;2023-02-01T01:33:36;32.83;;;22.73;;
19049;SDS011;9657;45.940;12.840;2023-02-01T01:36:04;28.73;;;19.50;;
19049;SDS011;9657;45.940;12.840;2023-02-01T01:38:33;32.43;;;20.30;;
19049;SDS011;9657;45.940;12.840;2023-02-01T01:41:01;32.73;;;20.27;;
19049;SDS011;9657;45.940;12.840;2023-02-01T01:46:14;34.27;;;23.37;;
19049;SDS011;9657;45.940;12.840;2023-02-01T01:48:42;31.83;;;20.63;;
19049;SDS011;9657;45.940;12.840;2023-02-01T01:51:10;30.57;;;20.37;;
19049;SDS011;9657;45.940;12.840;2023-02-01T01:53:43;30.40;;;20.30;;
19049;SDS011;9657;45.940;12.840;2023-02-01T01:56:14;32.43;;;22.33;;
19049;SDS011;9657;45.940;12.840;2023-02-01T01:58:41;34.97;;;23.57;;
19049;SDS011;9657;45.940;12.840;2023-02-01T02:03:44;30.90;;;22.73;;
19049;SDS011;9657;45.940;12.840;2023-02-01T02:06:15;28.30;;;20.17;;
19049;SDS011;9657;45.940;12.840;2023-02-01T02:08:49;30.93;;;20.83;;
19049;SDS011;9657;45.940;12.840;2023-02-01T02:11:16;27.73;;;20.63;;
19049;SDS011;9657;45.940;12.840;2023-02-01T02:13:45;32.27;;;21.83;;
19049;SDS011;9657;45.940;12.840;2023-02-01T02:16:35;32.17;;;21.43;;
19049;SDS011;9657;45.940;12.840;2023-02-01T02:19:20;31.23;;;21.77;;
19049;SDS011;9657;45.940;12.840;2023-02-01T02:22:08;28.53;;;21.27;;
19049;SDS011;9657;45.940;12.840;2023-02-01T02:28:21;27.53;;;19.13;;
19049;SDS011;9657;45.940;12.840;2023-02-01T02:31:17;25.93;;;19.53;;
19049;SDS011;9657;45.940;12.840;2023-02-01T02:34:04;29.47;;;20.93;;
19049;SDS011;9657;45.940;12.840;2023-02-01T02:36:43;27.07;;;18.80;;
19049;SDS011;9657;45.940;12.840;2023-02-01T02:39:20;27.57;;;19.40;;
19049;SDS011;9657;45.940;12.840;2023-02-01T02:41:54;29.87;;;20.70;;
19049;SDS011;9657;45.940;12.840;2023-02-01T02:44:44;26.33;;;18.97;;
19049;SDS011;9657;45.940;12.840;2023-02-01T02:47:33;26.23;;;18.57;;
19049;SDS011;9657;45.940;12.840;2023-02-01T02:50:17;27.20;;;19.27;;
19049;SDS011;9657;45.940;12.840;2023-02-01T02:53:07;28.13;;;18.80;;
19049;SDS011;9657;45.940;12.840;2023-02-01T02:55:57;23.63;;;18.33;;
19049;SDS011;9657;45.940;12.840;2023-02-01T02:58:43;26.23;;;17.90;;
19049;SDS011;9657;45.940;12.840;2023-02-01T03:01:30;26.37;;;18.77;;
19049;SDS011;9657;45.940;12.840;2023-02-01T03:04:15;25.63;;;18.10;;
19049;SDS011;9657;45.940;12.840;2023-02-01T03:06:45;23.50;;;17.67;;
19049;SDS011;9657;45.940;12.840;2023-02-01T03:09:13;21.90;;;16.60;;
19049;SDS011;9657;45.940;12.840;2023-02-01T03:11:47;24.07;;;16.27;;
19049;SDS011;9657;45.940;12.840;2023-02-01T03:14:36;27.37;;;16.17;;
19049;SDS011;9657;45.940;12.840;2023-02-01T03:17:11;23.30;;;15.20;;
19049;SDS011;9657;45.940;12.840;2023-02-01T03:19:43;24.23;;;15.03;;
19049;SDS011;9657;45.940;12.840;2023-02-01T03:22:16;23.73;;;15.33;;
19049;SDS011;9657;45.940;12.840;2023-02-01T03:24:47;22.80;;;14.47;;
19049;SDS011;9657;45.940;12.840;2023-02-01T03:27:18;22.20;;;14.77;;
19049;SDS011;9657;45.940;12.840;2023-02-01T03:29:49;23.17;;;14.63;;
19049;SDS011;9657;45.940;12.840;2023-02-01T03:32:20;24.87;;;14.77;;
19049;SDS011;9657;45.940;12.840;2023-02-01T03:34:48;19.93;;;13.67;;
19049;SDS011;9657;45.940;12.840;2023-02-01T03:37:21;20.97;;;14.00;;
19049;SDS011;9657;45.940;12.840;2023-02-01T03:39:52;24.37;;;15.30;;
19049;SDS011;9657;45.940;12.840;2023-02-01T03:42:26;21.63;;;14.73;;
19049;SDS011;9657;45.940;12.840;2023-02-01T03:44:57;24.80;;;14.20;;
19049;SDS011;9657;45.940;12.840;2023-02-01T03:47:34;26.40;;;14.23;;
19049;SDS011;9657;45.940;12.840;2023-02-01T03:50:05;22.03;;;14.43;;
19049;SDS011;9657;45.940;12.840;2023-02-01T03:52:37;20.40;;;13.50;;
19049;SDS011;9657;45.940;12.840;2023-02-01T03:55:07;23.97;;;13.63;;
19049;SDS011;9657;45.940;12.840;2023-02-01T03:57:37;21.30;;;14.27;;
19049;SDS011;9657;45.940;12.840;2023-02-01T04:00:14;20.93;;;14.97;;
19049;SDS011;9657;45.940;12.840;2023-02-01T04:02:43;23.83;;;15.00;;
19049;SDS011;9657;45.940;12.840;2023-02-01T04:05:10;20.83;;;13.57;;
19049;SDS011;9657;45.940;12.840;2023-02-01T04:07:38;22.33;;;14.07;;
19049;SDS011;9657;45.940;12.840;2023-02-01T04:10:06;21.27;;;13.27;;
19049;SDS011;9657;45.940;12.840;2023-02-01T04:12:34;22.10;;;12.97;;
19049;SDS011;9657;45.940;12.840;2023-02-01T04:15:01;23.50;;;13.07;;
19049;SDS011;9657;45.940;12.840;2023-02-01T04:17:28;23.17;;;14.10;;
19049;SDS011;9657;45.940;12.840;2023-02-01T04:19:56;21.50;;;13.40;;
19049;SDS011;9657;45.940;12.840;2023-02-01T04:22:23;19.17;;;11.80;;
19049;SDS011;9657;45.940;12.840;2023-02-01T04:24:51;19.07;;;12.27;;
19049;SDS011;9657;45.940;12.840;2023-02-01T04:27:18;22.03;;;12.77;;
19049;SDS011;9657;45.940;12.840;2023-02-01T04:29:45;23.87;;;13.80;;
19049;SDS011;9657;45.940;12.840;2023-02-01T04:32:14;19.43;;;12.63;;
19049;SDS011;9657;45.940;12.840;2023-02-01T04:34:41;18.67;;;12.40;;
19049;SDS011;9657;45.940;12.840;2023-02-01T04:37:08;24.27;;;13.23;;
19049;SDS011;9657;45.940;12.840;2023-02-01T04:39:36;21.73;;;13.67;;
19049;SDS011;9657;45.940;12.840;2023-02-01T04:42:04;23.10;;;12.37;;
19049;SDS011;9657;45.940;12.840;2023-02-01T04:44:31;18.47;;;12.50;;
19049;SDS011;9657;45.940;12.840;2023-02-01T04:46:58;20.43;;;12.33;;
19049;SDS011;9657;45.940;12.840;2023-02-01T04:49:25;20.30;;;12.07;;
19049;SDS011;9657;45.940;12.840;2023-02-01T04:51:52;19.97;;;12.30;;
19049;SDS011;9657;45.940;12.840;2023-02-01T04:54:19;19.80;;;12.27;;
19049;SDS011;9657;45.940;12.840;2023-02-01T04:56:46;20.40;;;12.40;;
19049;SDS011;9657;45.940;12.840;2023-02-01T04:59:15;23.13;;;13.43;;
19049;SDS011;9657;45.940;12.840;2023-02-01T05:01:42;23.23;;;13.20;;
19049;SDS011;9657;45.940;12.840;2023-02-01T05:04:09;19.87;;;11.90;;
19049;SDS011;9657;45.940;12.840;2023-02-01T05:06:36;25.00;;;13.63;;
19049;SDS011;9657;45.940;12.840;2023-02-01T05:09:03;17.70;;;13.50;;
19049;SDS011;9657;45.940;12.840;2023-02-01T05:11:30;21.97;;;14.00;;
19049;SDS011;9657;45.940;12.840;2023-02-01T05:14:18;18.83;;;13.40;;
19049;SDS011;9657;45.940;12.840;2023-02-01T05:16:45;20.63;;;14.03;;
19049;SDS011;9657;45.940;12.840;2023-02-01T05:19:12;19.77;;;14.00;;
19049;SDS011;9657;45.940;12.840;2023-02-01T05:21:39;23.77;;;14.47;;
19049;SDS011;9657;45.940;12.840;2023-02-01T05:24:07;19.03;;;13.77;;
19049;SDS011;9657;45.940;12.840;2023-02-01T05:26:38;20.13;;;14.57;;
19049;SDS011;9657;45.940;12.840;2023-02-01T05:29:06;21.20;;;13.67;;
19049;SDS011;9657;45.940;12.840;2023-02-01T05:31:35;19.00;;;13.37;;
19049;SDS011;9657;45.940;12.840;2023-02-01T05:34:03;23.40;;;15.07;;
19049;SDS011;9657;45.940;12.840;2023-02-01T05:36:30;19.00;;;13.70;;
19049;SDS011;9657;45.940;12.840;2023-02-01T05:38:57;19.50;;;13.63;;
19049;SDS011;9657;45.940;12.840;2023-02-01T05:41:24;18.40;;;12.90;;
19049;SDS011;9657;45.940;12.840;2023-02-01T05:43:51;16.23;;;12.20;;
19049;SDS011;9657;45.940;12.840;2023-02-01T05:46:18;16.67;;;11.40;;
19049;SDS011;9657;45.940;12.840;2023-02-01T05:48:47;17.30;;;11.53;;
19049;SDS011;9657;45.940;12.840;2023-02-01T05:51:14;20.57;;;10.83;;
19049;SDS011;9657;45.940;12.840;2023-02-01T05:53:41;18.53;;;12.10;;
19049;SDS011;9657;45.940;12.840;2023-02-01T05:56:08;22.20;;;11.97;;
19049;SDS011;9657;45.940;12.840;2023-02-01T05:58:35;18.23;;;11.43;;
19049;SDS011;9657;45.940;12.840;2023-02-01T06:01:02;20.17;;;11.70;;
19049;SDS011;9657;45.940;12.840;2023-02-01T06:03:30;20.63;;;11.47;;
19049;SDS011;9657;45.940;12.840;2023-02-01T06:05:58;19.13;;;10.83;;
19049;SDS011;9657;45.940;12.840;2023-02-01T06:08:26;20.90;;;11.33;;
19049;SDS011;9657;45.940;12.840;2023-02-01T06:10:57;19.77;;;11.60;;
19049;SDS011;9657;45.940;12.840;2023-02-01T06:13:25;21.73;;;10.83;;
19049;SDS011;9657;45.940;12.840;2023-02-01T06:15:52;20.37;;;12.53;;
19049;SDS011;9657;45.940;12.840;2023-02-01T06:18:19;20.00;;;12.20;;
19049;SDS011;9657;45.940;12.840;2023-02-01T06:20:51;21.07;;;11.37;;
19049;SDS011;9657;45.940;12.840;2023-02-01T06:23:20;21.50;;;12.30;;
19049;SDS011;9657;45.940;12.840;2023-02-01T06:25:49;21.40;;;10.93;;
19049;SDS011;9657;45.940;12.840;2023-02-01T06:28:17;19.33;;;11.47;;
19049;SDS011;9657;45.940;12.840;2023-02-01T06:30:44;20.17;;;11.43;;
19049;SDS011;9657;45.940;12.840;2023-02-01T06:33:11;19.60;;;12.27;;
19049;SDS011;9657;45.940;12.840;2023-02-01T06:35:40;18.33;;;12.07;;
19049;SDS011;9657;45.940;12.840;2023-02-01T06:38:09;16.60;;;10.93;;
19049;SDS011;9657;45.940;12.840;2023-02-01T06:40:38;17.30;;;10.07;;
19049;SDS011;9657;45.940;12.840;2023-02-01T06:43:06;17.13;;;10.60;;
19049;SDS011;9657;45.940;12.840;2023-02-01T06:45:33;18.27;;;12.93;;
19049;SDS011;9657;45.940;12.840;2023-02-01T06:48:00;19.73;;;13.27;;
19049;SDS011;9657;45.940;12.840;2023-02-01T06:50:27;18.03;;;13.20;;
19049;SDS011;9657;45.940;12.840;2023-02-01T06:52:54;21.63;;;12.03;;
19049;SDS011;9657;45.940;12.840;2023-02-01T06:55:21;18.73;;;11.57;;
19049;SDS011;9657;45.940;12.840;2023-02-01T06:57:53;15.80;;;10.73;;
19049;SDS011;9657;45.940;12.840;2023-02-01T07:00:21;19.17;;;12.33;;
19049;SDS011;9657;45.940;12.840;2023-02-01T07:02:48;21.87;;;12.07;;
19049;SDS011;9657;45.940;12.840;2023-02-01T07:05:16;22.40;;;12.53;;
19049;SDS011;9657;45.940;12.840;2023-02-01T07:07:43;23.77;;;12.27;;
19049;SDS011;9657;45.940;12.840;2023-02-01T07:10:11;18.50;;;12.00;;
19049;SDS011;9657;45.940;12.840;2023-02-01T07:12:38;20.23;;;11.77;;
19049;SDS011;9657;45.940;12.840;2023-02-01T07:15:07;17.70;;;11.40;;
19049;SDS011;9657;45.940;12.840;2023-02-01T07:17:34;22.20;;;13.00;;
19049;SDS011;9657;45.940;12.840;2023-02-01T07:20:01;19.07;;;11.53;;
19049;SDS011;9657;45.940;12.840;2023-02-01T07:22:29;20.77;;;12.73;;
19049;SDS011;9657;45.940;12.840;2023-02-01T07:24:56;21.93;;;13.07;;
19049;SDS011;9657;45.940;12.840;2023-02-01T07:27:23;23.43;;;12.63;;
19049;SDS011;9657;45.940;12.840;2023-02-01T07:29:51;20.67;;;11.67;;
19049;SDS011;9657;45.940;12.840;2023-02-01T07:32:19;21.30;;;12.10;;
19049;SDS011;9657;45.940;12.840;2023-02-01T07:34:46;21.17;;;13.03;;
19049;SDS011;9657;45.940;12.840;2023-02-01T07:37:13;20.03;;;11.60;;
19049;SDS011;9657;45.940;12.840;2023-02-01T07:39:40;20.17;;;12.30;;
19049;SDS011;9657;45.940;12.840;2023-02-01T07:42:07;21.20;;;12.00;;
19049;SDS011;9657;45.940;12.840;2023-02-01T07:44:34;23.20;;;12.57;;
19049;SDS011;9657;45.940;12.840;2023-02-01T07:47:01;19.77;;;12.00;;
19049;SDS011;9657;45.940;12.840;2023-02-01T07:49:29;20.53;;;13.20;;
19049;SDS011;9657;45.940;12.840;2023-02-01T07:51:56;20.77;;;12.67;;
19049;SDS011;9657;45.940;12.840;2023-02-01T07:54:24;22.03;;;13.23;;
19049;SDS011;9657;45.940;12.840;2023-02-01T07:56:51;25.13;;;14.43;;
19049;SDS011;9657;45.940;12.840;2023-02-01T07:59:18;23.47;;;14.90;;
19049;SDS011;9657;45.940;12.840;2023-02-01T08:01:45;23.40;;;16.00;;
19049;SDS011;9657;45.940;12.840;2023-02-01T08:04:11;21.47;;;14.53;;
19049;SDS011;9657;45.940;12.840;2023-02-01T08:06:40;24.53;;;14.30;;
19049;SDS011;9657;45.940;12.840;2023-02-01T08:09:07;22.83;;;14.67;;
19049;SDS011;9657;45.940;12.840;2023-02-01T08:11:35;21.43;;;15.10;;
19049;SDS011;9657;45.940;12.840;2023-02-01T08:14:03;23.57;;;16.00;;
19049;SDS011;9657;45.940;12.840;2023-02-01T08:16:31;22.00;;;15.60;;
19049;SDS011;9657;45.940;12.840;2023-02-01T08:19:00;25.80;;;15.40;;
19049;SDS011;9657;45.940;12.840;2023-02-01T08:21:27;22.63;;;15.70;;
19049;SDS011;9657;45.940;12.840;2023-02-01T08:24:02;22.20;;;15.07;;
19049;SDS011;9657;45.940;12.840;2023-02-01T08:26:30;23.73;;;16.17;;
19049;SDS011;9657;45.940;12.840;2023-02-01T08:28:58;26.60;;;16.10;;
19049;SDS011;9657;45.940;12.840;2023-02-01T08:31:27;27.40;;;15.97;;
19049;SDS011;9657;45.940;12.840;2023-02-01T08:33:56;24.53;;;16.17;;
19049;SDS011;9657;45.940;12.840;2023-02-01T08:36:24;24.70;;;15.80;;
19049;SDS011;9657;45.940;12.840;2023-02-01T08:38:53;23.20;;;14.73;;
19049;SDS011;9657;45.940;12.840;2023-02-01T08:41:22;26.40;;;16.63;;
19049;SDS011;9657;45.940;12.840;2023-02-01T08:43:50;24.93;;;14.63;;
19049;SDS011;9657;45.940;12.840;2023-02-01T08:46:19;23.13;;;13.80;;
19049;SDS011;9657;45.940;12.840;2023-02-01T08:48:46;21.50;;;14.73;;
19049;SDS011;9657;45.940;12.840;2023-02-01T08:51:14;21.93;;;14.10;;
19049;SDS011;9657;45.940;12.840;2023-02-01T08:53:43;23.23;;;14.47;;
19049;SDS011;9657;45.940;12.840;2023-02-01T08:56:11;24.07;;;14.77;;
19049;SDS011;9657;45.940;12.840;2023-02-01T08:58:40;24.17;;;14.40;;
19049;SDS011;9657;45.940;12.840;2023-02-01T09:01:08;24.07;;;13.83;;
19049;SDS011;9657;45.940;12.840;2023-02-01T09:03:37;26.23;;;15.13;;
19049;SDS011;9657;45.940;12.840;2023-02-01T09:06:05;23.93;;;13.93;;
19049;SDS011;9657;45.940;12.840;2023-02-01T09:08:33;23.30;;;13.27;;
19049;SDS011;9657;45.940;12.840;2023-02-01T09:11:02;23.60;;;15.97;;
19049;SDS011;9657;45.940;12.840;2023-02-01T09:13:30;28.67;;;16.87;;
19049;SDS011;9657;45.940;12.840;2023-02-01T09:16:00;28.80;;;15.50;;
19049;SDS011;9657;45.940;12.840;2023-02-01T09:18:27;23.10;;;14.13;;
19049;SDS011;9657;45.940;12.840;2023-02-01T09:20:54;22.63;;;13.57;;
19049;SDS011;9657;45.940;12.840;2023-02-01T09:23:21;24.57;;;14.80;;
19049;SDS011;9657;45.940;12.840;2023-02-01T09:25:48;22.03;;;14.43;;
19049;SDS011;9657;45.940;12.840;2023-02-01T09:28:16;23.33;;;14.40;;
19049;SDS011;9657;45.940;12.840;2023-02-01T09:30:43;25.87;;;14.50;;
19049;SDS011;9657;45.940;12.840;2023-02-01T09:33:12;26.57;;;14.50;;
19049;SDS011;9657;45.940;12.840;2023-02-01T09:35:39;32.03;;;15.20;;
19049;SDS011;9657;45.940;12.840;2023-02-01T09:38:06;27.67;;;16.80;;
19049;SDS011;9657;45.940;12.840;2023-02-01T09:40:33;26.83;;;15.23;;
19049;SDS011;9657;45.940;12.840;2023-02-01T09:43:06;29.53;;;16.87;;
19049;SDS011;9657;45.940;12.840;2023-02-01T09:45:43;27.60;;;14.80;;
19049;SDS011;9657;45.940;12.840;2023-02-01T09:48:19;28.30;;;14.70;;
19049;SDS011;9657;45.940;12.840;2023-02-01T09:50:50;28.03;;;15.53;;
19049;SDS011;9657;45.940;12.840;2023-02-01T09:53:21;32.33;;;16.27;;
19049;SDS011;9657;45.940;12.840;2023-02-01T09:55:54;29.13;;;17.30;;
19049;SDS011;9657;45.940;12.840;2023-02-01T09:58:25;26.70;;;15.00;;
19049;SDS011;9657;45.940;12.840;2023-02-01T10:00:57;27.47;;;14.33;;
19049;SDS011;9657;45.940;12.840;2023-02-01T10:03:27;23.00;;;14.87;;
19049;SDS011;9657;45.940;12.840;2023-02-01T10:05:59;25.63;;;17.37;;
19049;SDS011;9657;45.940;12.840;2023-02-01T10:08:43;27.87;;;17.87;;
19049;SDS011;9657;45.940;12.840;2023-02-01T10:11:27;29.43;;;18.17;;
19049;SDS011;9657;45.940;12.840;2023-02-01T10:14:16;29.40;;;17.77;;
19049;SDS011;9657;45.940;12.840;2023-02-01T10:17:01;31.10;;;18.00;;
19049;SDS011;9657;45.940;12.840;2023-02-01T10:19:39;25.23;;;17.27;;
19049;SDS011;9657;45.940;12.840;2023-02-01T10:22:17;31.43;;;17.30;;
19049;SDS011;9657;45.940;12.840;2023-02-01T10:24:49;27.30;;;16.60;;
19049;SDS011;9657;45.940;12.840;2023-02-01T10:27:22;25.33;;;17.23;;
19049;SDS011;9657;45.940;12.840;2023-02-01T10:29:57;29.13;;;17.70;;
19049;SDS011;9657;45.940;12.840;2023-02-01T10:32:28;26.77;;;17.27;;
19049;SDS011;9657;45.940;12.840;2023-02-01T10:34:59;27.40;;;16.97;;
19049;SDS011;9657;45.940;12.840;2023-02-01T10:37:28;27.93;;;17.70;;
19049;SDS011;9657;45.940;12.840;2023-02-01T10:39:57;29.43;;;17.27;;
19049;SDS011;9657;45.940;12.840;2023-02-01T10:42:27;29.30;;;18.53;;
19049;SDS011;9657;45.940;12.840;2023-02-01T10:44:56;26.50;;;15.30;;
19049;SDS011;9657;45.940;12.840;2023-02-01T10:47:25;25.50;;;15.00;;
19049;SDS011;9657;45.940;12.840;2023-02-01T10:49:54;25.77;;;15.73;;
19049;SDS011;9657;45.940;12.840;2023-02-01T10:52:33;27.50;;;15.20;;
19049;SDS011;9657;45.940;12.840;2023-02-01T10:57:56;23.67;;;13.37;;
19049;SDS011;9657;45.940;12.840;2023-02-01T11:00:25;25.93;;;14.80;;
19049;SDS011;9657;45.940;12.840;2023-02-01T11:02:52;25.33;;;15.07;;
19049;SDS011;9657;45.940;12.840;2023-02-01T11:05:22;23.57;;;14.37;;
19049;SDS011;9657;45.940;12.840;2023-02-01T11:07:53;25.33;;;14.67;;
19049;SDS011;9657;45.940;12.840;2023-02-01T11:10:36;24.43;;;13.97;;
19049;SDS011;9657;45.940;12.840;2023-02-01T11:13:05;24.83;;;14.27;;
19049;SDS011;9657;45.940;12.840;2023-02-01T11:15:42;24.97;;;14.77;;
19049;SDS011;9657;45.940;12.840;2023-02-01T11:18:15;26.37;;;15.73;;
19049;SDS011;9657;45.940;12.840;2023-02-01T11:20:45;22.57;;;14.93;;
19049;SDS011;9657;45.940;12.840;2023-02-01T11:23:17;24.67;;;14.77;;
19049;SDS011;9657;45.940;12.840;2023-02-01T11:25:49;27.07;;;15.43;;
19049;SDS011;9657;45.940;12.840;2023-02-01T11:28:18;27.43;;;16.77;;
19049;SDS011;9657;45.940;12.840;2023-02-01T11:30:49;21.33;;;13.77;;
19049;SDS011;9657;45.940;12.840;2023-02-01T11:33:20;23.03;;;14.87;;
19049;SDS011;9657;45.940;12.840;2023-02-01T11:35:55;26.07;;;14.90;;
19049;SDS011;9657;45.940;12.840;2023-02-01T11:38:26;20.70;;;13.73;;
19049;SDS011;9657;45.940;12.840;2023-02-01T11:40:55;21.77;;;14.57;;
19049;SDS011;9657;45.940;12.840;2023-02-01T11:43:37;22.07;;;13.53;;
19049;SDS011;9657;45.940;12.840;2023-02-01T11:46:16;24.90;;;16.67;;
19049;SDS011;9657;45.940;12.840;2023-02-01T11:48:49;26.00;;;15.87;;
19049;SDS011;9657;45.940;12.840;2023-02-01T11:51:21;22.30;;;16.27;;
19049;SDS011;9657;45.940;12.840;2023-02-01T11:57:04;25.87;;;16.53;;
19049;SDS011;9657;45.940;12.840;2023-02-01T11:59:47;25.90;;;17.07;;
19049;SDS011;9657;45.940;12.840;2023-02-01T12:02:36;30.20;;;17.80;;
19049;SDS011;9657;45.940;12.840;2023-02-01T12:05:25;24.67;;;16.67;;
19049;SDS011;9657;45.940;12.840;2023-02-01T12:08:09;25.23;;;15.87;;
19049;SDS011;9657;45.940;12.840;2023-02-01T12:10:58;23.43;;;16.30;;
19049;SDS011;9657;45.940;12.840;2023-02-01T12:13:43;23.73;;;16.40;;
19049;SDS011;9657;45.940;12.840;2023-02-01T12:16:19;26.63;;;16.63;;
19049;SDS011;9657;45.940;12.840;2023-02-01T12:18:58;28.13;;;17.57;;
19049;SDS011;9657;45.940;12.840;2023-02-01T12:21:45;25.23;;;16.97;;
19049;SDS011;9657;45.940;12.840;2023-02-01T12:24:36;24.00;;;15.77;;
19049;SDS011;9657;45.940;12.840;2023-02-01T12:27:21;23.03;;;16.70;;
19049;SDS011;9657;45.940;12.840;2023-02-01T12:30:16;25.90;;;17.07;;
19049;SDS011;9657;45.940;12.840;2023-02-01T12:32:59;25.30;;;15.37;;
19049;SDS011;9657;45.940;12.840;2023-02-01T12:35:44;20.97;;;12.30;;
19049;SDS011;9657;45.940;12.840;2023-02-01T12:38:22;21.87;;;12.80;;
19049;SDS011;9657;45.940;12.840;2023-02-01T12:41:23;26.00;;;15.17;;
19049;SDS011;9657;45.940;12.840;2023-02-01T12:44:08;23.73;;;15.73;;
19049;SDS011;9657;45.940;12.840;2023-02-01T12:46:39;22.50;;;14.60;;
19049;SDS011;9657;45.940;12.840;2023-02-01T12:49:10;24.63;;;13.10;;
19049;SDS011;9657;45.940;12.840;2023-02-01T12:51:42;17.87;;;12.87;;
19049;SDS011;9657;45.940;12.840;2023-02-01T12:54:13;24.50;;;13.93;;
19049;SDS011;9657;45.940;12.840;2023-02-01T12:56:48;23.53;;;13.90;;
19049;SDS011;9657;45.940;12.840;2023-02-01T12:59:23;20.10;;;12.77;;
19049;SDS011;9657;45.940;12.840;2023-02-01T13:01:56;20.57;;;11.70;;
19049;SDS011;9657;45.940;12.840;2023-02-01T13:04:29;25.33;;;12.97;;
19049;SDS011;9657;45.940;12.840;2023-02-01T13:07:01;20.77;;;13.03;;
19049;SDS011;9657;45.940;12.840;2023-02-01T13:09:36;21.90;;;12.80;;
19049;SDS011;9657;45.940;12.840;2023-02-01T13:12:09;20.00;;;13.67;;
19049;SDS011;9657;45.940;12.840;2023-02-01T13:14:41;19.63;;;13.87;;
19049;SDS011;9657;45.940;12.840;2023-02-01T13:17:14;20.17;;;12.30;;
19049;SDS011;9657;45.940;12.840;2023-02-01T13:19:47;18.30;;;11.70;;
19049;SDS011;9657;45.940;12.840;2023-02-01T13:22:19;19.00;;;12.53;;
19049;SDS011;9657;45.940;12.840;2023-02-01T13:24:51;18.90;;;12.87;;
19049;SDS011;9657;45.940;12.840;2023-02-01T13:27:22;22.00;;;12.93;;
19049;SDS011;9657;45.940;12.840;2023-02-01T13:29:54;20.63;;;12.03;;
19049;SDS011;9657;45.940;12.840;2023-02-01T13:35:34;19.80;;;12.50;;
19049;SDS011;9657;45.940;12.840;2023-02-01T13:38:38;21.03;;;13.33;;
19049;SDS011;9657;45.940;12.840;2023-02-01T13:41:38;18.80;;;12.43;;
19049;SDS011;9657;45.940;12.840;2023-02-01T13:44:12;20.23;;;12.93;;
19049;SDS011;9657;45.940;12.840;2023-02-01T13:46:46;20.23;;;12.87;;
19049;SDS011;9657;45.940;12.840;2023-02-01T13:49:18;21.90;;;12.43;;
19049;SDS011;9657;45.940;12.840;2023-02-01T13:51:49;17.60;;;12.07;;
19049;SDS011;9657;45.940;12.840;2023-02-01T13:54:26;20.47;;;12.30;;
19049;SDS011;9657;45.940;12.840;2023-02-01T13:56:56;23.63;;;13.97;;
19049;SDS011;9657;45.940;12.840;2023-02-01T13:59:48;20.53;;;12.03;;
19049;SDS011;9657;45.940;12.840;2023-02-01T14:08:39;22.20;;;12.87;;
19049;SDS011;9657;45.940;12.840;2023-02-01T14:11:30;20.07;;;12.90;;
19049;SDS011;9657;45.940;12.840;2023-02-01T14:14:07;15.93;;;11.93;;
19049;SDS011;9657;45.940;12.840;2023-02-01T14:23:24;19.20;;;12.77;;
19049;SDS011;9657;45.940;12.840;2023-02-01T14:26:03;18.60;;;12.83;;
19049;SDS011;9657;45.940;12.840;2023-02-01T14:28:34;20.43;;;12.53;;
19049;SDS011;9657;45.940;12.840;2023-02-01T14:31:13;18.17;;;11.93;;
19049;SDS011;9657;45.940;12.840;2023-02-01T14:33:44;20.93;;;12.83;;
19049;SDS011;9657;45.940;12.840;2023-02-01T14:36:12;17.83;;;11.33;;
19049;SDS011;9657;45.940;12.840;2023-02-01T14:38:46;22.03;;;13.80;;
19049;SDS011;9657;45.940;12.840;2023-02-01T14:41:24;19.57;;;12.73;;
19049;SDS011;9657;45.940;12.840;2023-02-01T14:44:14;20.50;;;12.87;;
19049;SDS011;9657;45.940;12.840;2023-02-01T14:47:26;17.93;;;12.07;;
19049;SDS011;9657;45.940;12.840;2023-02-01T14:50:02;18.47;;;12.30;;
19049;SDS011;9657;45.940;12.840;2023-02-01T14:52:45;19.37;;;12.67;;
19049;SDS011;9657;45.940;12.840;2023-02-01T14:55:16;18.27;;;11.90;;
19049;SDS011;9657;45.940;12.840;2023-02-01T14:57:49;22.03;;;14.33;;
19049;SDS011;9657;45.940;12.840;2023-02-01T15:00:23;22.87;;;12.13;;
19049;SDS011;9657;45.940;12.840;2023-02-01T15:02:51;18.67;;;11.73;;
19049;SDS011;9657;45.940;12.840;2023-02-01T15:05:26;17.83;;;11.70;;
19049;SDS011;9657;45.940;12.840;2023-02-01T15:07:58;17.60;;;11.70;;
19049;SDS011;9657;45.940;12.840;2023-02-01T15:10:32;19.10;;;11.10;;
19049;SDS011;9657;45.940;12.840;2023-02-01T15:13:12;18.27;;;11.60;;
19049;SDS011;9657;45.940;12.840;2023-02-01T15:15:59;18.77;;;11.83;;
19049;SDS011;9657;45.940;12.840;2023-02-01T15:18:27;17.10;;;11.07;;
19049;SDS011;9657;45.940;12.840;2023-02-01T15:20:59;19.83;;;12.07;;